sensor_id;sensor_type;location;lat;lon;timestamp;pressure;altitude;pressure_sealevel;temperature;humidity
44027;BME280;29696;55.698;37.460;2023-01-15T00:01:23;100172.50;;;-1.74;75.96
44027;BME280;29696;55.698;37.460;2023-01-15T00:03:51;100177.84;;;-1.80;75.75
44027;BME280;29696;55.698;37.460;2023-01-15T00:06:18;100183.13;;;-1.83;75.83
44027;BME280;29696;55.698;37.460;2023-01-15T00:08:45;100184.03;;;-1.84;75.78
44027;BME280;29696;55.698;37.460;2023-01-15T00:11:12;100170.22;;;-1.85;76.23
44027;BME280;29696;55.698;37.460;2023-01-15T00:13:38;100175.41;;;-1.85;76.00
44027;BME280;29696;55.698;37.460;2023-01-15T00:16:18;100170.88;;;-1.76;76.25
44027;BME280;29696;55.698;37.460;2023-01-15T00:19:14;100170.63;;;-1.69;76.41
44027;BME280;29696;55.698;37.460;2023-01-15T00:21:40;100176.91;;;-1.76;76.17
44027;BME280;29696;55.698;37.460;2023-01-15T00:24:08;100167.56;;;-1.81;75.74
44027;BME280;29696;55.698;37.460;2023-01-15T00:26:52;100171.81;;;-1.80;75.68
44027;BME280;29696;55.698;37.460;2023-01-15T00:29:37;100171.09;;;-1.86;75.79
44027;BME280;29696;55.698;37.460;2023-01-15T00:32:05;100160.81;;;-1.89;76.15
44027;BME280;29696;55.698;37.460;2023-01-15T00:34:33;100159.03;;;-1.87;76.61
44027;BME280;29696;55.698;37.460;2023-01-15T00:37:00;100149.53;;;-1.86;76.09
44027;BME280;29696;55.698;37.460;2023-01-15T00:39:27;100150.47;;;-1.89;75.95
44027;BME280;29696;55.698;37.460;2023-01-15T00:41:53;100149.69;;;-1.92;76.13
44027;BME280;29696;55.698;37.460;2023-01-15T00:44:20;100146.25;;;-1.91;76.59
44027;BME280;29696;55.698;37.460;2023-01-15T00:46:47;100142.75;;;-1.90;76.44
44027;BME280;29696;55.698;37.460;2023-01-15T00:49:13;100145.28;;;-1.89;76.64
44027;BME280;29696;55.698;37.460;2023-01-15T00:51:40;100140.91;;;-1.87;76.61
44027;BME280;29696;55.698;37.460;2023-01-15T00:54:07;100137.31;;;-1.81;76.38
44027;BME280;29696;55.698;37.460;2023-01-15T00:56:33;100132.13;;;-1.81;76.15
44027;BME280;29696;55.698;37.460;2023-01-15T00:59:01;100133.03;;;-1.82;76.06
44027;BME280;29696;55.698;37.460;2023-01-15T01:01:28;100137.47;;;-1.87;75.73
44027;BME280;29696;55.698;37.460;2023-01-15T01:03:55;100119.53;;;-1.93;76.11
44027;BME280;29696;55.698;37.460;2023-01-15T01:06:22;100125.63;;;-1.96;76.28
44027;BME280;29696;55.698;37.460;2023-01-15T01:08:49;100123.09;;;-1.97;76.77
44027;BME280;29696;55.698;37.460;2023-01-15T01:11:18;100132.47;;;-1.93;76.71
44027;BME280;29696;55.698;37.460;2023-01-15T01:13:46;100142.00;;;-1.94;76.82
44027;BME280;29696;55.698;37.460;2023-01-15T01:16:39;100129.56;;;-1.83;76.97
44027;BME280;29696;55.698;37.460;2023-01-15T01:19:09;100121.97;;;-1.89;76.30
44027;BME280;29696;55.698;37.460;2023-01-15T01:21:37;100127.31;;;-1.95;76.35
44027;BME280;29696;55.698;37.460;2023-01-15T01:24:04;100117.06;;;-1.98;76.57
44027;BME280;29696;55.698;37.460;2023-01-15T01:26:33;100121.31;;;-1.95;76.53
44027;BME280;29696;55.698;37.460;2023-01-15T01:29:00;100123.13;;;-1.99;76.57
44027;BME280;29696;55.698;37.460;2023-01-15T01:31:26;100120.53;;;-1.99;76.82
44027;BME280;29696;55.698;37.460;2023-01-15T01:33:54;100122.38;;;-2.02;76.72
44027;BME280;29696;55.698;37.460;2023-01-15T01:36:30;100120.53;;;-1.97;77.03
44027;BME280;29696;55.698;37.460;2023-01-15T01:38:58;100120.47;;;-1.96;77.18
44027;BME280;29696;55.698;37.460;2023-01-15T01:41:25;100128.13;;;-1.91;77.04
44027;BME280;29696;55.698;37.460;2023-01-15T01:44:05;100124.56;;;-1.89;76.91
44027;BME280;29696;55.698;37.460;2023-01-15T01:46:34;100124.88;;;-1.99;76.65
44027;BME280;29696;55.698;37.460;2023-01-15T01:49:05;100124.88;;;-1.99;77.07
44027;BME280;29696;55.698;37.460;2023-01-15T01:51:38;100129.13;;;-1.97;76.97
44027;BME280;29696;55.698;37.460;2023-01-15T01:54:06;100118.78;;;-1.98;77.11
44027;BME280;29696;55.698;37.460;2023-01-15T01:56:35;100126.41;;;-1.92;76.98
44027;BME280;29696;55.698;37.460;2023-01-15T01:59:02;100118.59;;;-1.91;76.89
44027;BME280;29696;55.698;37.460;2023-01-15T02:01:30;100121.88;;;-1.86;76.72
44027;BME280;29696;55.698;37.460;2023-01-15T02:03:57;100124.44;;;-1.84;76.26
44027;BME280;29696;55.698;37.460;2023-01-15T02:06:24;100121.13;;;-1.89;76.03
44027;BME280;29696;55.698;37.460;2023-01-15T02:08:52;100111.00;;;-1.97;76.35
44027;BME280;29696;55.698;37.460;2023-01-15T02:11:20;100106.78;;;-2.01;76.68
44027;BME280;29696;55.698;37.460;2023-01-15T02:14:00;100107.59;;;-1.99;77.20
44027;BME280;29696;55.698;37.460;2023-01-15T02:16:46;100109.09;;;-1.92;77.15
44027;BME280;29696;55.698;37.460;2023-01-15T02:29:18;100102.81;;;-1.83;77.10
44027;BME280;29696;55.698;37.460;2023-01-15T02:31:49;100103.59;;;-1.79;76.67
44027;BME280;29696;55.698;37.460;2023-01-15T02:34:46;100120.75;;;-1.75;76.65
44027;BME280;29696;55.698;37.460;2023-01-15T02:37:19;100112.41;;;-1.87;76.64
44027;BME280;29696;55.698;37.460;2023-01-15T02:39:48;100099.91;;;-2.02;76.78
44027;BME280;29696;55.698;37.460;2023-01-15T02:42:16;100106.75;;;-1.99;77.29
44027;BME280;29696;55.698;37.460;2023-01-15T02:44:50;100106.75;;;-1.99;77.07
44027;BME280;29696;55.698;37.460;2023-01-15T02:47:22;100102.38;;;-1.97;77.34
44027;BME280;29696;55.698;37.460;2023-01-15T02:49:50;100096.47;;;-2.02;77.04
44027;BME280;29696;55.698;37.460;2023-01-15T02:52:29;100094.63;;;-1.97;77.11
44027;BME280;29696;55.698;37.460;2023-01-15T02:55:05;100099.91;;;-2.02;77.13
44027;BME280;29696;55.698;37.460;2023-01-15T02:57:36;100098.84;;;-1.95;77.76
44027;BME280;29696;55.698;37.460;2023-01-15T03:00:08;100113.50;;;-1.94;77.20
44027;BME280;29696;55.698;37.460;2023-01-15T03:02:41;100109.97;;;-1.91;77.17
44027;BME280;29696;55.698;37.460;2023-01-15T03:05:51;100105.47;;;-1.85;77.31
44027;BME280;29696;55.698;37.460;2023-01-15T03:08:14;100103.00;;;-1.89;77.15
44027;BME280;29696;55.698;37.460;2023-01-15T03:10:47;100112.41;;;-1.87;76.96
44027;BME280;29696;55.698;37.460;2023-01-15T03:14:01;100120.06;;;-1.82;77.04
44027;BME280;29696;55.698;37.460;2023-01-15T03:16:56;100115.75;;;-1.83;77.08
44027;BME280;29696;55.698;37.460;2023-01-15T03:19:40;100111.41;;;-1.81;76.84
44027;BME280;29696;55.698;37.460;2023-01-15T03:22:33;100111.59;;;-1.89;76.74
44027;BME280;29696;55.698;37.460;2023-01-15T03:25:16;100118.41;;;-1.85;77.03
44027;BME280;29696;55.698;37.460;2023-01-15T03:27:52;100125.25;;;-1.82;77.04
44027;BME280;29696;55.698;37.460;2023-01-15T03:30:21;100125.19;;;-1.80;76.97
44027;BME280;29696;55.698;37.460;2023-01-15T03:32:49;100118.25;;;-1.78;76.71
44027;BME280;29696;55.698;37.460;2023-01-15T03:35:54;100117.88;;;-1.66;76.85
44027;BME280;29696;55.698;37.460;2023-01-15T03:38:35;100112.03;;;-1.73;76.50
44027;BME280;29696;55.698;37.460;2023-01-15T03:41:14;100117.06;;;-1.68;76.45
44027;BME280;29696;55.698;37.460;2023-01-15T03:50:47;100125.47;;;-1.90;77.05
44027;BME280;29696;55.698;37.460;2023-01-15T03:53:20;100124.72;;;-1.93;76.99
44027;BME280;29696;55.698;37.460;2023-01-15T03:59:17;100101.59;;;-2.01;77.39
44027;BME280;29696;55.698;37.460;2023-01-15T04:02:06;100101.91;;;-2.12;77.79
44027;BME280;29696;55.698;37.460;2023-01-15T04:04:34;100112.13;;;-2.07;78.38
44027;BME280;29696;55.698;37.460;2023-01-15T04:07:03;100112.94;;;-2.05;78.10
44027;BME280;29696;55.698;37.460;2023-01-15T04:09:36;100117.22;;;-2.04;78.07
44027;BME280;29696;55.698;37.460;2023-01-15T04:12:03;100120.72;;;-2.05;77.99
44027;BME280;29696;55.698;37.460;2023-01-15T04:14:35;100122.56;;;-2.09;78.22
44027;BME280;29696;55.698;37.460;2023-01-15T04:17:07;100124.22;;;-2.08;78.19
44027;BME280;29696;55.698;37.460;2023-01-15T04:19:33;100118.31;;;-2.11;78.53
44027;BME280;29696;55.698;37.460;2023-01-15T04:22:05;100121.56;;;-2.04;78.97
44027;BME280;29696;55.698;37.460;2023-01-15T04:24:32;100122.38;;;-2.02;79.03
44027;BME280;29696;55.698;37.460;2023-01-15T04:26:58;100114.53;;;-1.99;78.95
44027;BME280;29696;55.698;37.460;2023-01-15T04:29:24;100129.03;;;-1.94;78.97
44027;BME280;29696;55.698;37.460;2023-01-15T04:31:51;100117.84;;;-1.94;78.94
44027;BME280;29696;55.698;37.460;2023-01-15T04:34:26;100121.97;;;-1.89;78.67
44027;BME280;29696;55.698;37.460;2023-01-15T04:36:54;100119.44;;;-1.90;78.57
44027;BME280;29696;55.698;37.460;2023-01-15T04:39:21;100116.94;;;-1.93;78.24
44027;BME280;29696;55.698;37.460;2023-01-15T04:41:47;100111.94;;;-1.99;78.36
44027;BME280;29696;55.698;37.460;2023-01-15T04:44:33;100117.13;;;-1.99;79.30
44027;BME280;29696;55.698;37.460;2023-01-15T04:47:00;100117.22;;;-2.04;79.36
44027;BME280;29696;55.698;37.460;2023-01-15T04:49:26;100117.19;;;-2.02;79.50
44027;BME280;29696;55.698;37.460;2023-01-15T04:51:53;100120.81;;;-2.08;79.72
44027;BME280;29696;55.698;37.460;2023-01-15T04:54:19;100133.66;;;-2.05;79.81
44027;BME280;29696;55.698;37.460;2023-01-15T04:56:51;100123.13;;;-1.99;80.62
44027;BME280;29696;55.698;37.460;2023-01-15T04:59:21;100111.13;;;-2.01;80.72
44027;BME280;29696;55.698;37.460;2023-01-15T05:01:47;100117.94;;;-1.99;80.60
44027;BME280;29696;55.698;37.460;2023-01-15T05:04:14;100116.19;;;-1.97;80.80
44027;BME280;29696;55.698;37.460;2023-01-15T05:06:40;100100.03;;;-2.07;80.24
44027;BME280;29696;55.698;37.460;2023-01-15T05:09:06;100103.66;;;-2.12;80.52
44027;BME280;29696;55.698;37.460;2023-01-15T05:11:37;100120.91;;;-2.13;80.66
44027;BME280;29696;55.698;37.460;2023-01-15T05:14:05;100098.59;;;-2.17;81.38
44027;BME280;29696;55.698;37.460;2023-01-15T05:16:31;100107.34;;;-2.21;81.19
44027;BME280;29696;55.698;37.460;2023-01-15T05:19:00;100104.06;;;-2.27;81.37
44027;BME280;29696;55.698;37.460;2023-01-15T05:21:32;100111.06;;;-2.31;82.08
44027;BME280;29696;55.698;37.460;2023-01-15T05:24:00;100106.72;;;-2.31;82.16
44027;BME280;29696;55.698;37.460;2023-01-15T05:26:29;100098.19;;;-2.33;82.52
44027;BME280;29696;55.698;37.460;2023-01-15T05:28:57;100103.22;;;-2.28;82.16
44027;BME280;29696;55.698;37.460;2023-01-15T05:31:25;100110.03;;;-2.24;82.33
44027;BME280;29696;55.698;37.460;2023-01-15T05:33:52;100107.44;;;-2.24;82.29
44027;BME280;29696;55.698;37.460;2023-01-15T05:36:22;100091.91;;;-2.24;82.21
44027;BME280;29696;55.698;37.460;2023-01-15T05:38:49;100097.94;;;-2.23;81.72
44027;BME280;29696;55.698;37.460;2023-01-15T05:41:17;100098.84;;;-2.26;81.85
44027;BME280;29696;55.698;37.460;2023-01-15T05:44:12;100103.06;;;-2.22;82.31
44027;BME280;29696;55.698;37.460;2023-01-15T05:46:40;100109.94;;;-2.21;82.40
44027;BME280;29696;55.698;37.460;2023-01-15T05:49:09;100090.09;;;-2.22;82.20
44027;BME280;29696;55.698;37.460;2023-01-15T05:51:36;100098.50;;;-2.14;82.21
44027;BME280;29696;55.698;37.460;2023-01-15T05:54:05;100088.22;;;-2.15;81.60
44027;BME280;29696;55.698;37.460;2023-01-15T05:56:35;100101.00;;;-2.09;81.56
44027;BME280;29696;55.698;37.460;2023-01-15T05:59:02;100100.19;;;-2.13;81.29
44027;BME280;29696;55.698;37.460;2023-01-15T06:01:29;100092.59;;;-2.19;80.83
44027;BME280;29696;55.698;37.460;2023-01-15T06:04:00;100090.81;;;-2.15;80.75
44027;BME280;29696;55.698;37.460;2023-01-15T06:06:27;100084.91;;;-2.20;80.75
44027;BME280;29696;55.698;37.460;2023-01-15T06:08:53;100085.81;;;-2.23;81.03
44027;BME280;29696;55.698;37.460;2023-01-15T06:11:20;100085.56;;;-2.14;80.55
44027;BME280;29696;55.698;37.460;2023-01-15T06:13:46;100101.09;;;-2.14;80.78
44027;BME280;29696;55.698;37.460;2023-01-15T06:16:13;100101.06;;;-2.12;80.54
44027;BME280;29696;55.698;37.460;2023-01-15T06:18:40;100093.41;;;-2.15;80.39
44027;BME280;29696;55.698;37.460;2023-01-15T06:21:08;100095.84;;;-2.11;80.39
44027;BME280;29696;55.698;37.460;2023-01-15T06:23:35;100109.53;;;-2.07;80.53
44027;BME280;29696;55.698;37.460;2023-01-15T06:26:05;100106.88;;;-2.04;80.53
44027;BME280;29696;55.698;37.460;2023-01-15T06:28:32;100109.47;;;-2.04;80.78
44027;BME280;29696;55.698;37.460;2023-01-15T06:30:59;100122.97;;;-1.93;80.14
44027;BME280;29696;55.698;37.460;2023-01-15T06:33:25;100121.28;;;-1.94;79.63
44027;BME280;29696;55.698;37.460;2023-01-15T06:35:51;100126.53;;;-1.97;78.90
44027;BME280;29696;55.698;37.460;2023-01-15T06:38:18;100114.53;;;-1.99;79.37
44027;BME280;29696;55.698;37.460;2023-01-15T06:40:44;100106.09;;;-2.06;79.11
44027;BME280;29696;55.698;37.460;2023-01-15T06:43:10;100113.59;;;-1.97;79.41
44027;BME280;29696;55.698;37.460;2023-01-15T06:45:55;100117.75;;;-1.91;79.69
44027;BME280;29696;55.698;37.460;2023-01-15T06:48:51;100119.19;;;-1.83;79.79
44027;BME280;29696;55.698;37.460;2023-01-15T06:51:18;100115.66;;;-1.78;79.21
44027;BME280;29696;55.698;37.460;2023-01-15T06:53:46;100133.72;;;-1.77;78.56
44027;BME280;29696;55.698;37.460;2023-01-15T06:56:13;100128.53;;;-1.77;78.39
44027;BME280;29696;55.698;37.460;2023-01-15T06:58:43;100113.16;;;-1.81;78.23
44027;BME280;29696;55.698;37.460;2023-01-15T07:01:11;100116.69;;;-1.86;78.17
44027;BME280;29696;55.698;37.460;2023-01-15T07:03:38;100117.78;;;-1.93;78.20
44027;BME280;29696;55.698;37.460;2023-01-15T07:06:09;100111.69;;;-1.92;78.67
44027;BME280;29696;55.698;37.460;2023-01-15T07:08:36;100109.09;;;-1.92;78.87
44027;BME280;29696;55.698;37.460;2023-01-15T07:11:08;100118.41;;;-1.85;78.85
44027;BME280;29696;55.698;37.460;2023-01-15T07:13:35;100113.31;;;-1.88;78.67
44027;BME280;29696;55.698;37.460;2023-01-15T07:16:03;100112.41;;;-1.87;78.64
44027;BME280;29696;55.698;37.460;2023-01-15T07:18:32;100115.91;;;-1.88;78.76
44027;BME280;29696;55.698;37.460;2023-01-15T07:20:58;100117.69;;;-1.90;78.96
44027;BME280;29696;55.698;37.460;2023-01-15T07:23:25;100124.56;;;-1.89;79.21
44027;BME280;29696;55.698;37.460;2023-01-15T07:25:53;100110.84;;;-1.92;78.93
44027;BME280;29696;55.698;37.460;2023-01-15T07:28:22;100116.97;;;-1.95;79.16
44027;BME280;29696;55.698;37.460;2023-01-15T07:30:50;100125.47;;;-1.90;79.48
44027;BME280;29696;55.698;37.460;2023-01-15T07:33:16;100132.22;;;-1.84;79.30
44027;BME280;29696;55.698;37.460;2023-01-15T07:35:42;100120.25;;;-1.88;78.71
44027;BME280;29696;55.698;37.460;2023-01-15T07:38:09;100131.41;;;-1.86;79.08
44027;BME280;29696;55.698;37.460;2023-01-15T07:40:35;100131.41;;;-1.86;78.95
44027;BME280;29696;55.698;37.460;2023-01-15T07:43:03;100109.81;;;-1.85;78.86
44027;BME280;29696;55.698;37.460;2023-01-15T07:45:48;100116.59;;;-1.83;78.51
44027;BME280;29696;55.698;37.460;2023-01-15T07:48:33;100111.56;;;-1.87;78.06
44027;BME280;29696;55.698;37.460;2023-01-15T07:51:18;100106.41;;;-1.87;78.16
44027;BME280;29696;55.698;37.460;2023-01-15T07:53:44;100113.34;;;-1.89;78.06
44027;BME280;29696;55.698;37.460;2023-01-15T07:56:10;100113.31;;;-1.88;78.19
44027;BME280;29696;55.698;37.460;2023-01-15T07:58:37;100107.25;;;-1.87;78.23
44027;BME280;29696;55.698;37.460;2023-01-15T08:01:03;100109.63;;;-1.79;77.90
44027;BME280;29696;55.698;37.460;2023-01-15T08:03:29;100105.19;;;-1.75;77.52
44027;BME280;29696;55.698;37.460;2023-01-15T08:05:55;100101.84;;;-1.79;77.18
44027;BME280;29696;55.698;37.460;2023-01-15T08:08:22;100103.50;;;-1.76;77.16
44027;BME280;29696;55.698;37.460;2023-01-15T08:10:48;100112.16;;;-1.77;77.13
44027;BME280;29696;55.698;37.460;2023-01-15T08:13:33;100107.88;;;-1.78;77.19
44027;BME280;29696;55.698;37.460;2023-01-15T08:16:18;100107.69;;;-1.72;77.56
44027;BME280;29696;55.698;37.460;2023-01-15T08:18:44;100105.84;;;-1.69;77.15
44027;BME280;29696;55.698;37.460;2023-01-15T08:21:15;100103.22;;;-1.67;76.86
44027;BME280;29696;55.698;37.460;2023-01-15T08:23:42;100105.03;;;-1.71;76.35
44027;BME280;29696;55.698;37.460;2023-01-15T08:26:11;100114.63;;;-1.73;77.03
44027;BME280;29696;55.698;37.460;2023-01-15T08:28:37;100104.09;;;-1.68;77.23
44027;BME280;29696;55.698;37.460;2023-01-15T08:31:05;100106.59;;;-1.65;77.00
44027;BME280;29696;55.698;37.460;2023-01-15T08:33:33;100115.06;;;-1.58;76.72
44027;BME280;29696;55.698;37.460;2023-01-15T08:35:59;100105.25;;;-1.49;76.83
44027;BME280;29696;55.698;37.460;2023-01-15T08:38:26;100105.91;;;-1.42;76.24
44027;BME280;29696;55.698;37.460;2023-01-15T08:40:53;100108.31;;;-1.36;75.85
44027;BME280;29696;55.698;37.460;2023-01-15T08:43:26;100108.00;;;-1.25;75.71
44027;BME280;29696;55.698;37.460;2023-01-15T08:45:57;100103.41;;;-1.17;75.06
44027;BME280;29696;55.698;37.460;2023-01-15T08:48:24;100091.44;;;-1.21;74.46
44027;BME280;29696;55.698;37.460;2023-01-15T08:50:51;100095.91;;;-1.26;74.54
44027;BME280;29696;55.698;37.460;2023-01-15T08:53:18;100095.88;;;-1.25;74.31
44027;BME280;29696;55.698;37.460;2023-01-15T08:55:45;100092.47;;;-1.27;74.83
44027;BME280;29696;55.698;37.460;2023-01-15T08:58:12;100096.63;;;-1.21;74.93
44027;BME280;29696;55.698;37.460;2023-01-15T09:00:38;100088.00;;;-1.22;74.48
44027;BME280;29696;55.698;37.460;2023-01-15T09:03:05;100086.22;;;-1.20;74.75
44027;BME280;29696;55.698;37.460;2023-01-15T09:05:31;100084.31;;;-1.15;74.51
44027;BME280;29696;55.698;37.460;2023-01-15T09:07:58;100086.03;;;-1.13;74.29
44027;BME280;29696;55.698;37.460;2023-01-15T09:10:24;100086.81;;;-1.11;74.65
44027;BME280;29696;55.698;37.460;2023-01-15T09:12:50;100090.19;;;-1.09;74.04
44027;BME280;29696;55.698;37.460;2023-01-15T09:15:17;100084.31;;;-1.15;73.93
44027;BME280;29696;55.698;37.460;2023-01-15T09:17:43;100092.09;;;-1.15;74.00
44027;BME280;29696;55.698;37.460;2023-01-15T09:20:11;100084.41;;;-1.18;74.01
44027;BME280;29696;55.698;37.460;2023-01-15T09:22:38;100083.66;;;-1.21;74.01
44027;BME280;29696;55.698;37.460;2023-01-15T09:25:05;100080.22;;;-1.22;74.03
44027;BME280;29696;55.698;37.460;2023-01-15T09:27:32;100085.34;;;-1.20;74.20
44027;BME280;29696;55.698;37.460;2023-01-15T09:29:59;100079.31;;;-1.21;74.50
44027;BME280;29696;55.698;37.460;2023-01-15T09:32:25;100080.25;;;-1.23;74.09
44027;BME280;29696;55.698;37.460;2023-01-15T09:34:52;100084.56;;;-1.22;74.31
44027;BME280;29696;55.698;37.460;2023-01-15T09:37:18;100078.66;;;-1.27;73.95
44027;BME280;29696;55.698;37.460;2023-01-15T09:39:44;100075.34;;;-1.31;74.32
44027;BME280;29696;55.698;37.460;2023-01-15T09:42:37;100074.09;;;-1.19;74.62
44027;BME280;29696;55.698;37.460;2023-01-15T09:45:52;100068.13;;;-1.23;74.91
44027;BME280;29696;55.698;37.460;2023-01-15T09:55:12;100073.25;;;-1.20;74.77
44027;BME280;29696;55.698;37.460;2023-01-15T09:57:41;100069.25;;;-1.30;74.74
44027;BME280;29696;55.698;37.460;2023-01-15T10:00:23;100070.69;;;-1.21;74.64
44027;BME280;29696;55.698;37.460;2023-01-15T10:06:26;100069.59;;;-1.14;74.17
44027;BME280;29696;55.698;37.460;2023-01-15T10:09:12;100067.28;;;-1.23;74.24
44027;BME280;29696;55.698;37.460;2023-01-15T10:11:51;100069.75;;;-1.19;74.34
44027;BME280;29696;55.698;37.460;2023-01-15T10:21:56;100068.22;;;-0.98;74.41
44027;BME280;29696;55.698;37.460;2023-01-15T10:28:04;100055.34;;;-1.01;73.47
44027;BME280;29696;55.698;37.460;2023-01-15T10:30:42;100060.44;;;-0.98;73.04
44027;BME280;29696;55.698;37.460;2023-01-15T10:36:47;100060.16;;;-0.90;73.46
44027;BME280;29696;55.698;37.460;2023-01-15T10:45:32;100049.63;;;-1.10;72.95
44027;BME280;29696;55.698;37.460;2023-01-15T10:48:11;100044.34;;;-1.09;72.92
44027;BME280;29696;55.698;37.460;2023-01-15T10:50:38;100036.75;;;-1.13;72.76
44027;BME280;29696;55.698;37.460;2023-01-15T10:53:30;100039.91;;;-1.05;73.40
44027;BME280;29696;55.698;37.460;2023-01-15T10:56:04;100039.34;;;-1.13;73.30
44027;BME280;29696;55.698;37.460;2023-01-15T10:58:40;100023.56;;;-1.07;73.33
44027;BME280;29696;55.698;37.460;2023-01-15T11:01:13;100027.75;;;-1.03;73.13
44027;BME280;29696;55.698;37.460;2023-01-15T11:03:42;100019.25;;;-1.08;72.52
44027;BME280;29696;55.698;37.460;2023-01-15T11:06:17;100012.94;;;-1.00;72.89
44027;BME280;29696;55.698;37.460;2023-01-15T11:08:53;100001.56;;;-0.96;72.49
44027;BME280;29696;55.698;37.460;2023-01-15T11:11:28;100017.91;;;-0.94;72.47
44027;BME280;29696;55.698;37.460;2023-01-15T11:14:13;100025.00;;;-0.99;72.22
44027;BME280;29696;55.698;37.460;2023-01-15T11:16:58;100027.34;;;-0.91;72.63
44027;BME280;29696;55.698;37.460;2023-01-15T11:19:54;100012.16;;;-0.77;72.23
44027;BME280;29696;55.698;37.460;2023-01-15T11:22:20;100010.97;;;-0.68;71.60
44027;BME280;29696;55.698;37.460;2023-01-15T11:24:53;100014.16;;;-0.60;71.09
44027;BME280;29696;55.698;37.460;2023-01-15T11:27:23;100011.63;;;-0.63;70.90
44027;BME280;29696;55.698;37.460;2023-01-15T11:29:53;100008.28;;;-0.65;70.95
44027;BME280;29696;55.698;37.460;2023-01-15T11:35:17;100018.13;;;-0.75;70.97
44027;BME280;29696;55.698;37.460;2023-01-15T11:37:43;99999.16;;;-0.77;70.84
44027;BME280;29696;55.698;37.460;2023-01-15T11:40:19;99996.41;;;-0.72;71.11
44027;BME280;29696;55.698;37.460;2023-01-15T11:42:49;99988.16;;;-0.83;70.96
44027;BME280;29696;55.698;37.460;2023-01-15T11:45:49;99987.16;;;-0.79;71.26
44027;BME280;29696;55.698;37.460;2023-01-15T11:48:44;99997.75;;;-0.85;71.38
44027;BME280;29696;55.698;37.460;2023-01-15T11:51:38;99990.06;;;-0.88;71.28
44027;BME280;29696;55.698;37.460;2023-01-15T11:54:12;99984.56;;;-0.79;71.68
44027;BME280;29696;55.698;37.460;2023-01-15T11:56:44;99983.75;;;-0.81;71.04
44027;BME280;29696;55.698;37.460;2023-01-15T11:59:16;99981.13;;;-0.80;71.43
44027;BME280;29696;55.698;37.460;2023-01-15T12:01:51;99980.31;;;-0.82;71.60
44027;BME280;29696;55.698;37.460;2023-01-15T12:07:22;99969.13;;;-0.84;71.20
44027;BME280;29696;55.698;37.460;2023-01-15T12:27:14;99984.63;;;-0.57;70.60
44027;BME280;29696;55.698;37.460;2023-01-15T12:30:08;99992.53;;;-0.60;70.38
44027;BME280;29696;55.698;37.460;2023-01-15T12:32:43;99995.28;;;-0.65;70.38
44027;BME280;29696;55.698;37.460;2023-01-15T12:35:25;99996.06;;;-0.63;70.03
44027;BME280;29696;55.698;37.460;2023-01-15T12:41:09;99989.84;;;-0.82;70.66
44027;BME280;29696;55.698;37.460;2023-01-15T12:43:57;99978.09;;;-0.93;70.96
44027;BME280;29696;55.698;37.460;2023-01-15T12:46:58;99998.66;;;-0.86;70.74
44027;BME280;29696;55.698;37.460;2023-01-15T12:49:31;99989.84;;;-0.82;70.88
44027;BME280;29696;55.698;37.460;2023-01-15T12:52:18;100010.34;;;-0.75;70.94
44027;BME280;29696;55.698;37.460;2023-01-15T12:54:58;100008.16;;;-0.87;70.52
44027;BME280;29696;55.698;37.460;2023-01-15T12:57:35;100003.28;;;-0.96;70.71
44027;BME280;29696;55.698;37.460;2023-01-15T13:03:28;100008.88;;;-1.08;71.37
44027;BME280;29696;55.698;37.460;2023-01-15T13:05:58;100020.19;;;-1.09;71.25
44027;BME280;29696;55.698;37.460;2023-01-15T13:11:41;100016.94;;;-1.16;71.20
44027;BME280;29696;55.698;37.460;2023-01-15T13:14:16;100008.88;;;-1.08;71.25
44027;BME280;29696;55.698;37.460;2023-01-15T13:17:07;100011.56;;;-1.10;71.01
44027;BME280;29696;55.698;37.460;2023-01-15T13:20:20;100022.03;;;-1.13;71.51
44027;BME280;29696;55.698;37.460;2023-01-15T13:26:18;100023.72;;;-1.12;71.34
44027;BME280;29696;55.698;37.460;2023-01-15T13:29:24;100019.38;;;-1.11;71.50
44027;BME280;29696;55.698;37.460;2023-01-15T13:32:21;100021.22;;;-1.15;71.27
44027;BME280;29696;55.698;37.460;2023-01-15T13:35:31;100024.56;;;-1.11;71.50
44027;BME280;29696;55.698;37.460;2023-01-15T13:38:01;100012.06;;;-1.25;70.96
44027;BME280;29696;55.698;37.460;2023-01-15T13:40:51;100011.28;;;-1.29;71.21
44027;BME280;29696;55.698;37.460;2023-01-15T13:46:18;100008.81;;;-1.32;71.50
44027;BME280;29696;55.698;37.460;2023-01-15T13:48:48;100027.81;;;-1.31;71.88
44027;BME280;29696;55.698;37.460;2023-01-15T13:51:28;100024.13;;;-1.24;72.05
44027;BME280;29696;55.698;37.460;2023-01-15T13:53:58;100024.16;;;-1.26;71.54
44027;BME280;29696;55.698;37.460;2023-01-15T13:56:34;100036.94;;;-1.20;71.52
44027;BME280;29696;55.698;37.460;2023-01-15T13:59:04;100019.06;;;-1.29;71.21
44027;BME280;29696;55.698;37.460;2023-01-15T14:01:33;100026.66;;;-1.23;71.02
44027;BME280;29696;55.698;37.460;2023-01-15T14:04:33;100030.88;;;-1.20;71.02
44027;BME280;29696;55.698;37.460;2023-01-15T14:07:00;100028.13;;;-1.41;70.83
44027;BME280;29696;55.698;37.460;2023-01-15T14:09:28;100027.31;;;-1.43;71.17
44027;BME280;29696;55.698;37.460;2023-01-15T14:12:18;100030.34;;;-1.30;71.57
44027;BME280;29696;55.698;37.460;2023-01-15T14:21:33;100034.41;;;-1.21;71.42
44027;BME280;29696;55.698;37.460;2023-01-15T14:31:01;100037.91;;;-1.22;71.19
44027;BME280;29696;55.698;37.460;2023-01-15T14:39:55;100027.53;;;-1.50;71.58
44027;BME280;29696;55.698;37.460;2023-01-15T14:42:45;100034.19;;;-1.42;71.74
44027;BME280;29696;55.698;37.460;2023-01-15T14:45:31;100027.03;;;-1.35;71.77
44027;BME280;29696;55.698;37.460;2023-01-15T14:48:00;100021.47;;;-1.49;71.14
44027;BME280;29696;55.698;37.460;2023-01-15T14:50:40;100029.06;;;-1.43;71.70
44027;BME280;29696;55.698;37.460;2023-01-15T14:53:35;100031.47;;;-1.37;71.33
44027;BME280;29696;55.698;37.460;2023-01-15T14:56:57;100014.97;;;-1.34;71.26
44027;BME280;29696;55.698;37.460;2023-01-15T14:59:23;100020.34;;;-1.41;70.96
44027;BME280;29696;55.698;37.460;2023-01-15T15:04:42;99996.44;;;-1.50;71.42